Time;durP1;ratioP1;P1;durP2;ratioP2;P2;SDS_P1;SDS_P2;PMS_P1;PMS_P2;Temp;Humidity;BMP_temperature;BMP_pressure;BME280_temperature;BME280_humidity;BME280_pressure;Samples;Min_cycle;Max_cycle;Signal;HPM_P1;HPM_P2
2020/12/01 00:00:55;;;;;;;13.07;9.60;;;5.30;99.90;;;;;;5086581;28;20453;-86
2020/12/01 00:03:22;;;;;;;12.43;9.60;;;5.30;99.90;;;;;;5101794;28;20429;-87
2020/12/01 00:05:48;;;;;;;19.33;11.30;;;5.20;99.90;;;;;;5105890;28;20482;-87
2020/12/01 00:08:15;;;;;;;14.23;9.60;;;5.30;99.90;;;;;;5098469;28;20484;-86
2020/12/01 00:10:41;;;;;;;12.90;8.23;;;5.30;99.90;;;;;;5085278;28;20497;-86
2020/12/01 00:13:11;;;;;;;11.70;8.80;;;5.30;99.90;;;;;;5086073;28;20447;-86
2020/12/01 00:15:38;;;;;;;12.10;8.97;;;5.20;99.90;;;;;;5085531;28;20443;-86
2020/12/01 00:18:04;;;;;;;14.00;8.80;;;5.20;99.90;;;;;;5086321;28;20463;-86
2020/12/01 00:20:31;;;;;;;9.97;7.73;;;5.20;99.90;;;;;;5092441;28;20440;-86
2020/12/01 00:22:59;;;;;;;12.20;8.40;;;5.20;99.90;;;;;;5106048;28;20446;-86
2020/12/01 00:25:25;;;;;;;12.30;8.83;;;5.20;99.90;;;;;;5106164;28;20447;-86
2020/12/01 00:27:52;;;;;;;15.53;8.40;;;5.20;99.90;;;;;;5105998;28;20481;-86
2020/12/01 00:30:22;;;;;;;9.53;7.30;;;5.20;99.90;;;;;;5087774;28;20452;-85
2020/12/01 00:32:49;;;;;;;10.37;8.40;;;5.20;99.90;;;;;;5084332;28;20929;-85
2020/12/01 00:35:17;;;;;;;14.07;7.80;;;5.20;99.90;;;;;;5084181;28;20499;-86
2020/12/01 00:37:44;;;;;;;11.33;7.57;;;5.20;99.90;;;;;;5090027;28;20926;-85
2020/12/01 00:40:11;;;;;;;10.33;7.23;;;5.30;99.90;;;;;;5081330;28;20450;-86
2020/12/01 00:42:38;;;;;;;9.87;7.00;;;5.20;99.90;;;;;;5080514;28;20452;-86
2020/12/01 00:45:07;;;;;;;9.40;5.77;;;5.20;99.90;;;;;;5085163;28;20498;-86
2020/12/01 00:47:34;;;;;;;7.67;5.57;;;5.20;99.90;;;;;;5085090;28;20541;-86
2020/12/01 00:50:01;;;;;;;7.33;6.07;;;5.30;99.90;;;;;;5099201;28;20426;-86
2020/12/01 00:52:28;;;;;;;10.17;6.77;;;5.30;99.90;;;;;;5095125;28;20447;-86
2020/12/01 00:54:54;;;;;;;7.73;5.83;;;5.30;99.90;;;;;;5082584;28;20732;-86
2020/12/01 00:57:21;;;;;;;7.50;5.47;;;5.20;99.90;;;;;;5080713;28;20497;-87
2020/12/01 00:59:48;;;;;;;8.70;5.87;;;5.20;99.90;;;;;;5079537;28;20453;-87
2020/12/01 01:02:15;;;;;;;10.90;6.60;;;5.30;99.90;;;;;;5079912;28;20488;-86
2020/12/01 01:04:44;;;;;;;8.67;6.33;;;5.30;99.90;;;;;;5079433;28;20445;-86
2020/12/01 01:07:10;;;;;;;7.67;5.43;;;5.30;99.90;;;;;;5080184;28;20487;-86
2020/12/01 01:09:37;;;;;;;8.87;6.30;;;5.40;99.90;;;;;;5061191;28;20430;-85
2020/12/01 01:12:03;;;;;;;6.70;5.00;;;5.40;99.90;;;;;;5078813;28;20452;-85
2020/12/01 01:14:30;;;;;;;6.87;5.57;;;5.40;99.90;;;;;;5078826;28;20836;-85
2020/12/01 01:16:56;;;;;;;9.30;6.67;;;5.40;99.90;;;;;;5078794;28;20456;-85
2020/12/01 01:19:24;;;;;;;6.93;5.37;;;5.40;99.90;;;;;;5079335;28;20452;-85
2020/12/01 01:21:51;;;;;;;8.10;5.53;;;5.40;99.90;;;;;;5079816;28;20457;-86
2020/12/01 01:24:19;;;;;;;8.80;5.47;;;5.30;99.90;;;;;;5079084;28;20447;-87
2020/12/01 01:26:50;;;;;;;10.63;6.93;;;5.30;99.90;;;;;;5079184;28;20457;-86
2020/12/01 01:29:17;;;;;;;9.07;6.33;;;5.30;99.90;;;;;;5090511;28;20456;-89
2020/12/01 01:31:43;;;;;;;10.50;7.43;;;5.40;99.90;;;;;;5102402;28;20577;-89
2020/12/01 01:34:10;;;;;;;10.00;6.87;;;5.30;99.90;;;;;;5089009;28;20526;-88
2020/12/01 01:36:37;;;;;;;8.93;7.07;;;5.20;99.90;;;;;;5083018;28;20444;-89
2020/12/01 01:39:06;;;;;;;9.63;7.70;;;5.30;99.90;;;;;;5082931;28;20455;-89
2020/12/01 01:41:34;;;;;;;14.93;9.40;;;5.30;99.90;;;;;;5080334;28;20446;-89
2020/12/01 01:44:01;;;;;;;11.50;8.50;;;5.30;99.90;;;;;;5083385;28;20451;-88
2020/12/01 01:46:35;;;;;;;13.50;10.00;;;5.40;99.90;;;;;;5101033;28;20476;-88
2020/12/01 01:49:06;;;;;;;12.50;10.10;;;5.40;99.90;;;;;;5080783;28;20537;-89
2020/12/01 01:51:36;;;;;;;18.50;12.80;;;5.40;99.90;;;;;;5081267;28;20734;-89
2020/12/01 01:54:04;;;;;;;16.27;11.73;;;5.40;99.90;;;;;;5080202;28;20494;-89
2020/12/01 01:56:34;;;;;;;23.67;14.80;;;5.40;99.90;;;;;;5079568;28;20448;-90
2020/12/01 01:59:02;;;;;;;21.50;13.30;;;5.40;99.90;;;;;;5081105;28;20558;-87
2020/12/01 02:01:31;;;;;;;16.67;12.73;;;5.50;99.90;;;;;;5086971;28;20598;-87
2020/12/01 02:03:59;;;;;;;18.90;13.33;;;5.40;99.90;;;;;;5084626;28;20467;-87
2020/12/01 02:06:34;;;;;;;23.03;16.60;;;5.50;99.90;;;;;;5089144;28;20474;-87
2020/12/01 02:09:04;;;;;;;19.90;13.57;;;5.50;99.90;;;;;;5103235;28;20509;-87
2020/12/01 02:11:33;;;;;;;19.60;14.27;;;5.50;99.90;;;;;;5098981;28;20431;-87
2020/12/01 02:14:06;;;;;;;21.53;14.27;;;5.50;99.90;;;;;;5098574;28;20453;-88
2020/12/01 02:16:34;;;;;;;19.53;13.97;;;5.60;99.90;;;;;;5081398;28;20481;-87
2020/12/01 02:19:01;;;;;;;16.23;13.13;;;5.60;99.90;;;;;;5058149;28;20507;-87
2020/12/01 02:21:31;;;;;;;25.33;15.60;;;5.60;99.90;;;;;;5068613;28;20458;-89
2020/12/01 02:24:01;;;;;;;17.40;12.40;;;5.60;99.90;;;;;;5077782;28;20434;-88
2020/12/01 02:26:32;;;;;;;17.57;12.60;;;5.60;99.90;;;;;;5077488;28;20977;-89
2020/12/01 02:29:01;;;;;;;14.30;10.03;;;5.60;99.90;;;;;;5080856;28;20558;-86
2020/12/01 02:31:30;;;;;;;17.60;13.10;;;5.70;99.90;;;;;;5089960;28;20447;-89
2020/12/01 02:33:57;;;;;;;17.37;14.03;;;5.60;99.90;;;;;;5076970;28;20833;-86
2020/12/01 02:36:24;;;;;;;17.60;12.17;;;5.50;99.90;;;;;;5076701;28;20454;-88
2020/12/01 02:38:50;;;;;;;16.17;11.80;;;5.60;99.90;;;;;;5076789;28;20442;-87
2020/12/01 02:41:17;;;;;;;17.27;12.27;;;5.50;99.90;;;;;;5076399;28;20903;-86
2020/12/01 02:43:44;;;;;;;13.97;9.23;;;5.50;99.90;;;;;;5076340;28;20961;-85
2020/12/01 02:46:11;;;;;;;13.30;10.60;;;5.50;99.90;;;;;;5066025;28;20432;-86
2020/12/01 02:48:37;;;;;;;14.20;10.40;;;5.50;99.90;;;;;;5075641;28;20517;-88
2020/12/01 02:51:04;;;;;;;16.27;11.57;;;5.50;99.90;;;;;;5056684;28;20458;-86
2020/12/01 02:53:30;;;;;;;15.17;10.63;;;5.40;99.90;;;;;;5055432;28;20503;-86
2020/12/01 02:55:57;;;;;;;17.80;11.27;;;5.40;99.90;;;;;;5063553;28;20569;-86
2020/12/01 02:58:23;;;;;;;18.27;10.40;;;5.40;99.90;;;;;;5074374;28;20476;-86
2020/12/01 03:00:51;;;;;;;17.30;11.60;;;5.50;99.90;;;;;;5074978;28;20462;-87
2020/12/01 03:03:17;;;;;;;16.17;11.50;;;5.50;99.90;;;;;;5076223;28;20422;-86
2020/12/01 03:05:45;;;;;;;14.87;10.20;;;5.50;99.90;;;;;;5075738;28;20475;-87
2020/12/01 03:08:11;;;;;;;17.17;12.47;;;5.50;99.90;;;;;;5076231;28;20485;-87
2020/12/01 03:10:38;;;;;;;18.23;12.30;;;5.50;99.90;;;;;;5075386;28;20520;-87
2020/12/01 03:13:04;;;;;;;13.33;9.93;;;5.50;99.90;;;;;;5075628;28;20501;-87
2020/12/01 03:15:31;;;;;;;12.07;9.83;;;5.50;99.90;;;;;;5076301;28;20457;-88
2020/12/01 03:17:58;;;;;;;15.53;11.93;;;5.50;99.90;;;;;;5093226;28;20485;-86
2020/12/01 03:20:25;;;;;;;18.23;9.77;;;5.50;99.90;;;;;;5075668;28;20448;-86
2020/12/01 03:22:51;;;;;;;15.17;10.90;;;5.50;99.90;;;;;;5077764;28;20494;-87
2020/12/01 03:25:18;;;;;;;16.00;11.67;;;5.50;99.90;;;;;;5078989;28;20473;-87
2020/12/01 03:27:44;;;;;;;15.93;11.17;;;5.50;99.90;;;;;;5078974;28;20487;-87
2020/12/01 03:30:11;;;;;;;15.70;12.07;;;5.50;99.90;;;;;;5078794;28;20485;-87
2020/12/01 03:32:37;;;;;;;15.80;11.23;;;5.60;99.90;;;;;;5079436;28;21004;-86
2020/12/01 03:35:05;;;;;;;18.47;12.47;;;5.50;99.90;;;;;;5098928;28;20443;-85
2020/12/01 03:37:31;;;;;;;15.50;10.40;;;5.60;99.90;;;;;;5098944;28;20462;-87
2020/12/01 03:39:58;;;;;;;18.60;12.43;;;5.60;99.90;;;;;;5085954;28;20424;-86
2020/12/01 03:42:24;;;;;;;14.93;11.00;;;5.60;99.90;;;;;;5083680;28;20798;-86
2020/12/01 03:44:51;;;;;;;15.57;11.93;;;5.60;99.90;;;;;;5078271;28;20997;-86
2020/12/01 03:47:18;;;;;;;16.07;12.13;;;5.60;99.90;;;;;;5082524;28;20530;-86
2020/12/01 03:49:44;;;;;;;16.03;11.20;;;5.70;99.90;;;;;;5090850;28;20452;-86
2020/12/01 03:52:11;;;;;;;18.50;12.97;;;5.60;99.90;;;;;;5079702;28;20466;-87
2020/12/01 03:54:38;;;;;;;15.47;10.80;;;5.60;99.90;;;;;;5080149;28;20526;-86
2020/12/01 03:57:04;;;;;;;20.03;12.17;;;5.70;99.90;;;;;;5079554;28;20446;-86
2020/12/01 03:59:34;;;;;;;17.47;12.13;;;5.70;99.90;;;;;;5080767;28;20454;-87
2020/12/01 04:02:00;;;;;;;15.53;11.97;;;5.70;99.90;;;;;;5079821;28;20454;-86
2020/12/01 04:04:28;;;;;;;15.80;11.57;;;5.70;99.90;;;;;;5079010;28;20905;-87
2020/12/01 04:06:56;;;;;;;16.60;12.60;;;5.70;99.90;;;;;;5078172;28;20492;-86
2020/12/01 04:09:24;;;;;;;13.83;11.20;;;5.80;99.90;;;;;;5078288;28;20585;-87
2020/12/01 04:11:51;;;;;;;15.77;11.20;;;5.80;99.90;;;;;;5078933;28;20755;-88
2020/12/01 04:14:19;;;;;;;15.83;10.80;;;5.80;99.90;;;;;;5079031;28;20495;-88
2020/12/01 04:16:45;;;;;;;14.53;10.90;;;5.80;99.90;;;;;;5089193;28;20456;-85
2020/12/01 04:19:12;;;;;;;17.67;11.43;;;5.90;99.90;;;;;;5083187;28;20501;-88
2020/12/01 04:21:38;;;;;;;17.00;11.40;;;5.80;99.90;;;;;;5078544;28;20964;-87
2020/12/01 04:24:05;;;;;;;15.67;10.67;;;5.90;99.90;;;;;;5078186;28;20454;-88
2020/12/01 04:26:33;;;;;;;17.73;11.93;;;5.90;99.90;;;;;;5078525;28;20431;-86
2020/12/01 04:29:00;;;;;;;20.07;13.47;;;5.80;99.90;;;;;;5078916;28;20542;-87
2020/12/01 04:31:27;;;;;;;14.90;11.47;;;5.80;99.90;;;;;;5079404;28;20446;-86
2020/12/01 04:33:53;;;;;;;15.50;12.33;;;5.80;99.90;;;;;;5076616;28;20646;-87
2020/12/01 04:36:20;;;;;;;17.00;12.57;;;5.90;99.90;;;;;;5078121;28;20459;-88
2020/12/01 04:38:46;;;;;;;18.60;12.13;;;5.80;99.90;;;;;;5078313;28;20479;-88
2020/12/01 04:41:13;;;;;;;14.83;12.00;;;5.80;99.90;;;;;;5078271;28;20914;-87
2020/12/01 04:43:44;;;;;;;16.03;12.93;;;5.90;99.90;;;;;;5078358;28;20444;-89
2020/12/01 04:46:15;;;;;;;17.10;12.53;;;5.90;99.90;;;;;;5082489;28;20466;-87
2020/12/01 04:48:45;;;;;;;14.50;11.10;;;5.90;99.90;;;;;;5078042;28;20870;-88
2020/12/01 04:51:32;;;;;;;16.40;11.80;;;5.90;99.90;;;;;;5089742;28;20524;-87
2020/12/01 04:54:24;;;;;;;15.70;11.47;;;5.90;99.90;;;;;;5098212;28;20435;-86
2020/12/01 04:57:22;;;;;;;13.03;10.47;;;5.90;99.90;;;;;;5098411;28;20445;-88
2020/12/01 05:00:06;;;;;;;12.33;9.53;;;5.90;99.90;;;;;;5091671;28;20496;-87
2020/12/01 05:02:56;;;;;;;16.57;11.03;;;5.90;99.90;;;;;;5078632;28;20467;-88
2020/12/01 05:06:07;;;;;;;17.00;11.80;;;6.00;99.90;;;;;;5078553;28;20434;-88
2020/12/01 05:08:57;;;;;;;17.57;11.00;;;6.00;99.90;;;;;;5079033;28;20478;-87
2020/12/01 05:11:33;;;;;;;14.70;11.00;;;6.00;99.90;;;;;;5073694;28;20451;-87
2020/12/01 05:14:10;;;;;;;14.63;11.10;;;6.10;99.90;;;;;;5083220;28;20442;-86
2020/12/01 05:16:48;;;;;;;20.50;14.50;;;6.00;99.90;;;;;;5101101;28;20462;-89
2020/12/01 05:19:41;;;;;;;15.83;11.27;;;6.00;99.90;;;;;;5083316;28;20442;-89
2020/12/01 05:22:09;;;;;;;17.50;13.90;;;6.00;99.90;;;;;;5079811;28;20512;-86
2020/12/01 05:24:43;;;;;;;17.63;11.83;;;6.00;99.90;;;;;;5079928;28;20453;-89
2020/12/01 05:27:25;;;;;;;18.13;13.53;;;6.10;99.90;;;;;;5077504;28;20445;-85
2020/12/01 05:29:57;;;;;;;18.80;13.50;;;6.10;99.90;;;;;;5076528;28;20434;-85
2020/12/01 05:32:26;;;;;;;17.90;13.53;;;6.10;99.90;;;;;;5090515;28;20454;-85
2020/12/01 05:34:53;;;;;;;18.43;13.30;;;6.20;99.90;;;;;;5096756;28;20446;-85
2020/12/01 05:37:19;;;;;;;18.47;13.03;;;6.20;99.90;;;;;;5096070;28;20455;-86
2020/12/01 05:39:46;;;;;;;17.90;12.23;;;6.10;99.90;;;;;;5086836;28;20515;-85
2020/12/01 05:42:18;;;;;;;15.63;11.80;;;6.10;99.90;;;;;;5076321;28;20493;-86
2020/12/01 05:44:57;;;;;;;18.07;13.17;;;6.10;99.90;;;;;;5076306;28;20903;-85
2020/12/01 05:47:33;;;;;;;18.47;13.23;;;6.20;99.90;;;;;;5077044;28;20516;-86
2020/12/01 05:50:10;;;;;;;20.93;14.83;;;6.10;99.90;;;;;;5078308;28;20436;-85
2020/12/01 05:52:49;;;;;;;21.60;15.20;;;6.10;99.90;;;;;;5078668;28;20442;-88
2020/12/01 05:55:18;;;;;;;18.67;13.20;;;6.10;99.90;;;;;;5076353;28;20500;-87
2020/12/01 05:57:57;;;;;;;21.30;14.50;;;6.10;99.90;;;;;;5076750;28;20511;-88
2020/12/01 06:00:28;;;;;;;27.53;15.97;;;6.20;99.90;;;;;;5077172;28;20508;-86
2020/12/01 06:03:14;;;;;;;26.83;16.17;;;6.20;99.90;;;;;;5088196;28;20529;-87
2020/12/01 06:05:43;;;;;;;20.20;14.67;;;6.20;99.90;;;;;;5090612;28;20508;-87
2020/12/01 06:08:23;;;;;;;30.50;18.07;;;6.20;99.90;;;;;;5096321;28;20811;-86
2020/12/01 06:10:57;;;;;;;21.50;14.67;;;6.20;99.90;;;;;;5096401;28;20489;-85
2020/12/01 06:13:41;;;;;;;26.10;16.13;;;6.20;99.90;;;;;;5077973;28;20435;-85
2020/12/01 06:16:35;;;;;;;21.00;15.03;;;6.30;99.90;;;;;;5079727;28;20895;-85
2020/12/01 06:19:14;;;;;;;23.60;15.63;;;6.20;99.90;;;;;;5076361;28;20438;-85
2020/12/01 06:21:57;;;;;;;36.23;19.00;;;6.30;99.90;;;;;;5072256;28;20844;-86
2020/12/01 06:25:06;;;;;;;29.33;15.23;;;6.30;99.90;;;;;;5055867;28;20435;-85
2020/12/01 06:28:09;;;;;;;28.27;18.17;;;6.30;99.90;;;;;;5090367;28;20437;-86
2020/12/01 06:31:06;;;;;;;35.07;18.57;;;6.20;99.90;;;;;;5056256;28;20470;-86
2020/12/01 06:34:02;;;;;;;24.63;16.40;;;6.30;99.90;;;;;;5055761;28;20440;-85
2020/12/01 06:37:08;;;;;;;24.83;16.70;;;6.30;99.90;;;;;;5063110;28;20440;-85
2020/12/01 06:39:46;;;;;;;25.70;14.70;;;6.40;99.90;;;;;;5075604;28;20477;-85
2020/12/01 06:42:19;;;;;;;28.80;17.63;;;6.40;99.90;;;;;;5076117;28;20438;-85
2020/12/01 06:44:53;;;;;;;29.20;17.03;;;6.40;99.90;;;;;;5075682;28;20434;-87
2020/12/01 06:47:24;;;;;;;27.00;15.53;;;6.40;99.90;;;;;;5084178;28;20972;-85
2020/12/01 06:49:55;;;;;;;28.43;17.50;;;6.40;99.90;;;;;;5092636;28;20533;-87
2020/12/01 06:52:23;;;;;;;27.90;17.70;;;6.40;99.90;;;;;;5077699;28;20438;-86
2020/12/01 06:54:51;;;;;;;29.00;17.30;;;6.40;99.90;;;;;;5076715;28;20472;-87
2020/12/01 06:57:29;;;;;;;26.50;16.10;;;6.50;99.90;;;;;;5074894;28;20446;-87
2020/12/01 06:59:57;;;;;;;25.00;15.13;;;6.50;99.90;;;;;;5075637;28;20488;-87
2020/12/01 07:02:27;;;;;;;37.50;21.13;;;6.50;99.90;;;;;;5076591;28;20464;-86
2020/12/01 07:05:10;;;;;;;24.47;15.97;;;6.60;99.90;;;;;;5076063;28;20453;-87
2020/12/01 07:07:50;;;;;;;33.50;18.73;;;6.50;99.90;;;;;;5077337;28;20510;-87
2020/12/01 07:10:27;;;;;;;30.00;17.53;;;6.60;99.90;;;;;;5077710;28;20435;-87
2020/12/01 07:13:08;;;;;;;29.10;17.33;;;6.60;99.90;;;;;;5075558;28;20431;-88
2020/12/01 07:15:42;;;;;;;28.43;16.97;;;6.60;99.90;;;;;;5079822;28;20530;-87
2020/12/01 07:18:16;;;;;;;24.93;15.90;;;6.60;99.90;;;;;;5075787;28;20495;-88
2020/12/01 07:21:04;;;;;;;31.27;18.20;;;6.70;99.90;;;;;;5074754;28;20499;-88
2020/12/01 07:23:35;;;;;;;34.70;20.10;;;6.70;99.90;;;;;;5075515;28;20539;-87
2020/12/01 07:26:16;;;;;;;40.17;20.20;;;6.70;99.90;;;;;;5067189;28;20797;-87
2020/12/01 07:28:59;;;;;;;36.77;21.70;;;6.70;99.90;;;;;;5073347;28;20483;-88
2020/12/01 07:31:28;;;;;;;52.63;22.90;;;6.70;99.90;;;;;;5069177;28;20783;-89
2020/12/01 07:34:01;;;;;;;43.53;22.93;;;6.70;99.90;;;;;;5076119;28;20454;-88
2020/12/01 07:36:40;;;;;;;65.97;31.07;;;6.70;99.90;;;;;;5072400;28;20442;-88
2020/12/01 07:39:13;;;;;;;39.73;23.27;;;6.70;99.90;;;;;;5076002;28;20493;-88
2020/12/01 07:41:52;;;;;;;44.17;22.80;;;6.80;99.90;;;;;;5070203;28;20451;-92
2020/12/01 07:44:21;;;;;;;51.97;27.70;;;6.80;99.90;;;;;;5076604;28;20446;-86
2020/12/01 07:47:00;;;;;;;47.53;25.37;;;6.70;99.90;;;;;;5074965;28;20466;-86
2020/12/01 07:49:28;;;;;;;53.80;25.20;;;6.80;99.90;;;;;;5075526;28;20477;-86
2020/12/01 07:52:04;;;;;;;55.07;28.83;;;6.80;99.90;;;;;;5074570;28;20484;-85
2020/12/01 07:54:32;;;;;;;44.53;25.00;;;6.80;99.90;;;;;;5078349;28;20888;-87
2020/12/01 07:56:59;;;;;;;39.47;24.13;;;6.90;99.90;;;;;;5085175;28;20452;-88
2020/12/01 07:59:26;;;;;;;52.53;25.23;;;6.90;99.90;;;;;;5077127;28;20473;-87
2020/12/01 08:01:53;;;;;;;54.23;25.93;;;6.90;99.90;;;;;;5076462;28;20469;-89
2020/12/01 08:04:21;;;;;;;44.60;23.93;;;7.00;99.90;;;;;;5082204;28;20465;-86
2020/12/01 08:06:58;;;;;;;45.37;23.17;;;7.00;99.90;;;;;;5076255;28;20930;-88
2020/12/01 08:09:25;;;;;;;49.60;25.67;;;7.00;99.90;;;;;;5072511;28;20910;-87
2020/12/01 08:11:55;;;;;;;62.30;28.40;;;7.00;99.90;;;;;;5086931;28;20789;-87
2020/12/01 08:14:28;;;;;;;56.37;27.10;;;7.00;99.90;;;;;;5089316;28;20842;-87
2020/12/01 08:17:04;;;;;;;69.43;29.57;;;6.90;99.90;;;;;;5082210;28;20458;-88
2020/12/01 08:19:32;;;;;;;55.53;29.50;;;6.90;99.90;;;;;;5079963;28;20451;-86
2020/12/01 08:22:00;;;;;;;57.03;27.43;;;6.90;99.90;;;;;;5078791;28;20485;-87
2020/12/01 08:24:31;;;;;;;49.40;27.07;;;6.90;99.90;;;;;;5080087;28;20447;-88
2020/12/01 08:27:06;;;;;;;50.60;28.23;;;6.90;99.90;;;;;;5078941;28;20446;-87
2020/12/01 08:29:38;;;;;;;50.83;26.07;;;6.80;99.90;;;;;;5078972;28;20470;-87
2020/12/01 08:32:12;;;;;;;47.20;24.10;;;6.90;99.90;;;;;;5078895;28;20437;-86
2020/12/01 08:34:49;;;;;;;73.37;29.80;;;7.00;99.90;;;;;;5074306;28;20587;-85
2020/12/01 08:37:29;;;;;;;45.30;24.47;;;7.20;99.90;;;;;;5076816;28;20903;-87
2020/12/01 08:40:07;;;;;;;52.20;25.00;;;7.20;99.90;;;;;;5079996;28;20442;-88
2020/12/01 08:42:51;;;;;;;64.87;28.13;;;7.20;99.90;;;;;;5077134;28;20457;-86
2020/12/01 08:45:43;;;;;;;55.77;27.40;;;7.20;99.90;;;;;;5079239;28;20438;-85
2020/12/01 08:48:24;;;;;;;71.27;30.07;;;7.20;99.90;;;;;;5039918;28;20479;-87
2020/12/01 08:51:00;;;;;;;51.90;24.40;;;7.00;99.90;;;;;;5058256;28;20454;-86
2020/12/01 08:53:27;;;;;;;42.33;23.70;;;7.20;99.90;;;;;;5070209;28;20450;-86
2020/12/01 08:55:55;;;;;;;49.83;24.63;;;7.20;99.90;;;;;;5077478;28;20450;-85
2020/12/01 08:58:43;;;;;;;44.90;25.67;;;7.20;99.90;;;;;;5077742;28;20489;-86
2020/12/01 09:01:14;;;;;;;43.07;25.07;;;7.30;99.90;;;;;;5072100;28;20458;-87
2020/12/01 09:03:54;;;;;;;50.53;23.67;;;7.40;99.90;;;;;;5078724;28;20443;-87
2020/12/01 09:06:22;;;;;;;49.70;25.77;;;7.50;99.90;;;;;;5077215;28;20539;-87
2020/12/01 09:08:57;;;;;;;43.90;23.17;;;7.50;99.90;;;;;;5077735;28;21117;-86
2020/12/01 09:14:35;;;;;;;46.03;24.60;;;7.60;99.90;;;;;;5076101;28;20513;-87
2020/12/01 09:17:15;;;;;;;51.05;26.25;;;7.60;99.90;;;;;;5080592;28;20442;-84
2020/12/01 09:20:01;;;;;;;39.73;23.37;;;7.70;99.90;;;;;;5076688;28;20228;-85
2020/12/01 09:22:30;;;;;;;38.67;22.67;;;7.70;99.90;;;;;;5077149;28;20454;-84
2020/12/01 09:25:17;;;;;;;48.03;25.13;;;7.80;99.90;;;;;;5077256;28;20443;-85
2020/12/01 09:27:44;;;;;;;43.73;22.00;;;7.90;99.90;;;;;;5077691;28;20442;-85
2020/12/01 09:30:31;;;;;;;44.43;23.07;;;7.80;99.90;;;;;;5078387;28;20862;-85
2020/12/01 09:32:58;;;;;;;40.10;21.93;;;7.80;99.90;;;;;;5067118;28;20455;-85
2020/12/01 09:35:25;;;;;;;44.60;23.80;;;7.70;99.90;;;;;;5076884;28;20930;-87
2020/12/01 09:37:52;;;;;;;51.53;25.73;;;7.70;99.90;;;;;;5079937;28;20469;-86
2020/12/01 09:40:20;;;;;;;62.87;29.70;;;7.60;99.90;;;;;;5075887;28;20446;-89
2020/12/01 09:42:49;;;;;;;76.60;29.23;;;7.60;99.90;;;;;;5075311;28;20446;-87
2020/12/01 09:45:20;;;;;;;52.60;26.30;;;7.50;99.90;;;;;;5078640;28;20454;-86
2020/12/01 09:47:49;;;;;;;51.53;26.27;;;7.60;99.90;;;;;;5081638;28;21001;-87
2020/12/01 09:50:20;;;;;;;46.30;25.10;;;7.60;99.90;;;;;;5076718;28;20479;-85
2020/12/01 09:53:07;;;;;;;48.67;24.30;;;7.70;99.90;;;;;;5075818;28;20435;-87
2020/12/01 09:58:33;;;;;;;38.30;20.93;;;7.90;99.90;;;;;;5083533;28;20445;-86
2020/12/01 10:09:19;;;;;;;38.67;21.00;;;7.90;99.90;;;;;;5077472;28;20465;-87
2020/12/01 10:34:24;;;;;;;21.57;15.27;;;8.40;99.90;;;;;;5098949;28;20420;-89
2020/12/01 10:36:51;;;;;;;26.37;16.73;;;8.40;99.90;;;;;;5099161;28;20862;-89
2020/12/01 10:39:19;;;;;;;26.10;16.33;;;8.30;99.90;;;;;;5094773;28;20458;-88
2020/12/01 10:41:48;;;;;;;14.87;11.77;;;8.20;99.90;;;;;;5078041;28;20510;-89
2020/12/01 10:44:15;;;;;;;16.30;10.90;;;8.20;99.90;;;;;;5074377;28;20483;-87
2020/12/01 10:46:48;;;;;;;16.50;12.10;;;8.20;99.90;;;;;;5087210;28;20573;-87
2020/12/01 10:49:15;;;;;;;16.30;12.47;;;8.10;99.90;;;;;;5096896;28;20524;-87
2020/12/01 10:51:42;;;;;;;21.57;13.60;;;8.10;99.90;;;;;;5097012;28;20446;-87
2020/12/01 10:54:09;;;;;;;16.50;11.07;;;8.00;99.90;;;;;;5095866;28;20515;-87
2020/12/01 10:56:37;;;;;;;20.90;13.07;;;8.10;99.90;;;;;;5096520;28;20472;-87
2020/12/01 10:59:04;;;;;;;23.30;13.20;;;8.10;99.90;;;;;;5096009;28;20446;-87
2020/12/01 11:01:34;;;;;;;18.67;13.60;;;8.00;99.90;;;;;;5085833;28;20458;-88
2020/12/01 11:04:00;;;;;;;20.50;14.17;;;8.00;99.90;;;;;;5054832;28;20517;-88
2020/12/01 11:06:27;;;;;;;27.77;19.40;;;8.00;99.90;;;;;;5064790;28;20528;-89
2020/12/01 11:08:54;;;;;;;27.80;21.47;;;8.10;99.90;;;;;;5091352;28;20481;-87
2020/12/01 11:11:20;;;;;;;21.17;18.27;;;8.20;99.90;;;;;;5083323;28;20448;-87
2020/12/01 11:13:49;;;;;;;18.03;12.40;;;8.20;99.90;;;;;;5090205;28;20446;-88
2020/12/01 11:16:16;;;;;;;18.37;13.90;;;8.30;99.90;;;;;;5074983;28;20455;-87
2020/12/01 11:18:42;;;;;;;16.17;12.10;;;8.30;99.90;;;;;;5075573;28;20466;-86
2020/12/01 11:21:09;;;;;;;18.40;13.77;;;8.30;99.90;;;;;;5079970;28;20792;-87
2020/12/01 11:23:35;;;;;;;20.70;13.00;;;8.40;99.90;;;;;;5076368;28;20488;-87
2020/12/01 11:26:02;;;;;;;19.10;14.17;;;8.40;99.90;;;;;;5074537;28;20500;-87
2020/12/01 11:28:28;;;;;;;19.73;13.80;;;8.50;99.90;;;;;;5076580;28;20471;-87
2020/12/01 11:30:56;;;;;;;25.63;16.57;;;8.50;99.90;;;;;;5075494;28;20458;-88
2020/12/01 11:33:22;;;;;;;18.30;12.73;;;8.40;99.90;;;;;;5075202;28;20507;-87
2020/12/01 11:35:51;;;;;;;19.10;13.53;;;8.40;99.90;;;;;;5075543;28;20450;-87
2020/12/01 11:38:18;;;;;;;15.07;10.90;;;8.40;99.90;;;;;;5075041;28;20927;-86
2020/12/01 11:40:44;;;;;;;15.10;12.17;;;8.40;99.90;;;;;;5076337;28;20451;-87
2020/12/01 11:43:11;;;;;;;16.00;12.40;;;8.50;99.90;;;;;;5076333;28;20455;-87
2020/12/01 11:45:37;;;;;;;21.97;13.53;;;8.50;99.90;;;;;;5080016;28;20451;-88
2020/12/01 11:48:05;;;;;;;15.13;10.20;;;8.50;99.90;;;;;;5079696;28;20942;-87
2020/12/01 11:50:31;;;;;;;11.90;9.83;;;8.50;99.90;;;;;;5080473;28;20494;-87
2020/12/01 11:52:58;;;;;;;17.70;11.80;;;8.60;99.90;;;;;;5081617;28;20447;-88
2020/12/01 11:55:25;;;;;;;21.93;12.43;;;8.60;99.90;;;;;;5077265;28;20440;-88
2020/12/01 11:57:54;;;;;;;14.27;10.87;;;8.70;99.90;;;;;;5076467;28;20533;-90
2020/12/01 12:00:24;;;;;;;14.23;11.90;;;8.70;99.90;;;;;;5079658;28;20518;-87
2020/12/01 12:02:51;;;;;;;15.57;12.53;;;8.70;99.90;;;;;;5080077;28;20462;-88
2020/12/01 12:05:19;;;;;;;15.20;12.43;;;8.70;99.90;;;;;;5078316;28;20512;-89
2020/12/01 12:07:45;;;;;;;12.40;10.97;;;8.70;99.90;;;;;;5078643;28;20551;-89
2020/12/01 12:10:12;;;;;;;16.27;13.20;;;8.70;99.90;;;;;;5078634;28;20540;-88
2020/12/01 12:12:39;;;;;;;22.40;13.33;;;8.70;99.90;;;;;;5078857;28;20447;-89
2020/12/01 12:15:06;;;;;;;15.07;12.10;;;8.70;99.90;;;;;;5078847;28;20459;-90
2020/12/01 12:17:32;;;;;;;15.93;12.40;;;8.70;99.90;;;;;;5080060;28;20450;-89
2020/12/01 12:19:59;;;;;;;14.00;10.90;;;8.70;99.90;;;;;;5075190;28;20514;-88
2020/12/01 12:22:26;;;;;;;15.73;12.17;;;8.70;99.90;;;;;;5083257;28;20518;-89
2020/12/01 12:24:52;;;;;;;19.37;13.77;;;8.70;99.90;;;;;;5077503;28;20455;-89
2020/12/01 12:27:19;;;;;;;14.70;12.30;;;8.70;99.90;;;;;;5075348;28;20512;-89
2020/12/01 12:29:45;;;;;;;16.67;11.77;;;8.80;99.90;;;;;;5077790;28;20474;-87
2020/12/01 12:32:12;;;;;;;13.67;11.30;;;8.80;99.90;;;;;;5077224;28;20593;-87
2020/12/01 12:34:39;;;;;;;14.27;10.93;;;8.80;99.90;;;;;;5077516;28;20477;-88
2020/12/01 12:37:05;;;;;;;15.47;13.47;;;8.70;99.90;;;;;;5078080;28;20505;-90
2020/12/01 12:39:33;;;;;;;17.33;12.70;;;8.80;99.90;;;;;;5076164;28;20463;-88
2020/12/01 12:41:59;;;;;;;14.80;12.07;;;8.70;99.90;;;;;;5076029;28;20463;-89
2020/12/01 12:44:26;;;;;;;14.30;12.60;;;8.70;99.90;;;;;;5085021;28;20520;-89
2020/12/01 12:46:53;;;;;;;14.77;12.50;;;8.70;99.90;;;;;;5076869;28;20455;-89
2020/12/01 12:49:20;;;;;;;15.80;11.47;;;8.80;99.90;;;;;;5077008;28;20478;-88
2020/12/01 12:51:46;;;;;;;15.00;10.67;;;8.80;99.90;;;;;;5091777;28;20455;-87
2020/12/01 12:54:13;;;;;;;15.10;10.90;;;8.80;99.90;;;;;;5078322;28;20694;-89
2020/12/01 12:56:40;;;;;;;12.73;10.30;;;8.80;99.90;;;;;;5071892;28;20923;-88
2020/12/01 12:59:07;;;;;;;12.17;9.63;;;8.80;99.90;;;;;;5076390;28;20439;-88
2020/12/01 13:01:33;;;;;;;12.83;10.77;;;8.80;99.90;;;;;;5075978;28;20806;-88
2020/12/01 13:04:00;;;;;;;14.13;11.00;;;8.80;99.90;;;;;;5081975;28;20827;-89
2020/12/01 13:06:31;;;;;;;12.37;11.03;;;8.80;99.90;;;;;;5079639;28;20475;-88
2020/12/01 13:08:57;;;;;;;13.70;11.07;;;8.90;99.90;;;;;;5084704;28;20485;-89
2020/12/01 13:11:27;;;;;;;13.77;10.03;;;8.90;99.90;;;;;;5080667;28;20458;-89
2020/12/01 13:13:57;;;;;;;12.70;10.27;;;8.80;99.90;;;;;;5080367;28;20454;-90
2020/12/01 13:16:30;;;;;;;13.43;11.27;;;8.80;99.90;;;;;;5089062;28;20806;-89
2020/12/01 13:19:14;;;;;;;13.13;9.97;;;8.80;99.90;;;;;;5077148;28;20451;-90
2020/12/01 13:21:41;;;;;;;13.63;10.43;;;8.80;99.90;;;;;;5077454;28;20439;-89
2020/12/01 13:24:08;;;;;;;12.30;10.67;;;8.80;99.90;;;;;;5075060;28;20489;-89
2020/12/01 13:26:35;;;;;;;13.37;9.80;;;8.90;99.90;;;;;;5067207;28;20455;-89
2020/12/01 13:29:03;;;;;;;13.33;9.60;;;8.90;99.90;;;;;;5076913;28;20483;-89
2020/12/01 13:31:30;;;;;;;16.17;11.90;;;8.80;99.90;;;;;;5062070;28;20452;-89
2020/12/01 13:33:56;;;;;;;13.87;11.40;;;8.80;99.90;;;;;;5072826;28;20498;-90